Time;durP1;ratioP1;P1;durP2;ratioP2;P2;SDS_P1;SDS_P2;PMS_P1;PMS_P2;Temp;Humidity;BMP_temperature;BMP_pressure;BME280_temperature;BME280_humidity;BME280_pressure;Samples;Min_cycle;Max_cycle;Signal;HPM_P1;HPM_P2
2020/12/08 00:00:37;;;;;;;13.83;12.43;;;;;20.70;99091.00;;;;2095834;28;20229;-47
2020/12/08 00:01:38;;;;;;;12.30;11.10;;;;;20.70;99084.00;;;;2096012;28;20215;-47
2020/12/08 00:02:38;;;;;;;13.10;11.90;;;;;20.70;99083.00;;;;2095755;28;20635;-47
2020/12/08 00:03:39;;;;;;;13.40;12.00;;;;;20.70;99078.00;;;;2095985;28;20210;-46
2020/12/08 00:04:40;;;;;;;12.90;11.70;;;;;20.70;99085.00;;;;2095307;28;20300;-47
2020/12/08 00:05:40;;;;;;;12.57;11.38;;;;;20.70;99077.00;;;;2095195;28;20264;-46
2020/12/08 00:06:41;;;;;;;13.10;11.83;;;;;20.70;99079.00;;;;2095330;28;20678;-47
2020/12/08 00:07:41;;;;;;;12.67;10.80;;;;;20.70;99074.00;;;;2095213;28;20822;-46
2020/12/08 00:08:41;;;;;;;12.47;11.27;;;;;20.70;99085.00;;;;2095292;28;20215;-47
2020/12/08 00:09:42;;;;;;;12.40;11.20;;;;;20.70;99064.00;;;;2094742;28;20708;-46
2020/12/08 00:10:42;;;;;;;12.17;11.07;;;;;20.70;99080.00;;;;2094854;28;20699;-46
2020/12/08 00:11:45;;;;;;;11.27;10.27;;;;;20.70;99082.00;;;;2095887;28;20215;-47
2020/12/08 00:12:52;;;;;;;11.90;10.80;;;;;20.60;99087.00;;;;2095900;28;20222;-47
2020/12/08 00:13:52;;;;;;;12.15;10.95;;;;;20.60;99080.00;;;;2095718;28;20282;-47
2020/12/08 00:14:53;;;;;;;11.43;10.43;;;;;20.60;99086.00;;;;2092916;28;20215;-47
2020/12/08 00:15:54;;;;;;;11.68;10.57;;;;;20.60;99083.00;;;;2092206;28;20207;-46
2020/12/08 00:16:54;;;;;;;11.90;10.80;;;;;20.60;99085.00;;;;2091872;28;20218;-47
2020/12/08 00:17:54;;;;;;;11.80;10.67;;;;;20.60;99076.00;;;;2087368;28;20218;-47
2020/12/08 00:18:55;;;;;;;10.00;9.20;;;;;20.60;99081.00;;;;2087707;28;20215;-46
2020/12/08 00:19:55;;;;;;;11.10;10.10;;;;;20.60;99085.00;;;;2087653;28;20212;-46
2020/12/08 00:20:55;;;;;;;10.83;9.80;;;;;20.60;99083.00;;;;2086945;28;20292;-46
2020/12/08 00:21:56;;;;;;;10.63;9.63;;;;;20.60;99080.00;;;;2088928;28;20214;-46
2020/12/08 00:22:56;;;;;;;11.20;10.10;;;;;20.60;99076.00;;;;2092911;28;20216;-47
2020/12/08 00:23:57;;;;;;;10.43;9.37;;;;;20.60;99074.00;;;;2091892;28;21181;-47
2020/12/08 00:24:57;;;;;;;10.90;9.87;;;;;20.60;99078.00;;;;2091354;28;20641;-47
2020/12/08 00:25:57;;;;;;;10.13;9.23;;;;;20.60;99076.00;;;;2085419;28;20217;-47
2020/12/08 00:26:58;;;;;;;10.23;9.33;;;;;20.50;99072.00;;;;2087520;28;20265;-47
2020/12/08 00:27:58;;;;;;;11.57;10.40;;;;;20.60;99072.00;;;;2087413;28;20276;-47
2020/12/08 00:28:58;;;;;;;10.10;9.20;;;;;20.50;99082.00;;;;2087583;28;20305;-47
2020/12/08 00:29:59;;;;;;;9.90;9.00;;;;;20.50;99076.00;;;;2087625;28;20219;-46
2020/12/08 00:30:59;;;;;;;10.20;9.20;;;;;20.50;99081.00;;;;2087192;28;20231;-47
2020/12/08 00:31:59;;;;;;;10.17;9.23;;;;;20.50;99079.00;;;;2087649;28;20207;-47
2020/12/08 00:33:00;;;;;;;10.43;9.50;;;;;20.50;99082.00;;;;2087532;28;20660;-46
2020/12/08 00:34:00;;;;;;;10.37;9.43;;;;;20.50;99084.00;;;;2086693;28;20651;-49
2020/12/08 00:35:00;;;;;;;9.23;8.37;;;;;20.50;99086.00;;;;2086468;28;20221;-50
2020/12/08 00:36:02;;;;;;;9.83;8.93;;;;;20.50;99083.00;;;;2087575;28;20215;-48
2020/12/08 00:37:05;;;;;;;9.10;8.20;;;;;20.50;99085.00;;;;2087158;28;20207;-46
2020/12/08 00:38:06;;;;;;;10.05;9.15;;;;;20.50;99079.00;;;;2087207;28;20218;-46
2020/12/08 00:39:06;;;;;;;8.67;7.97;;;;;20.50;99077.00;;;;2087414;28;20218;-46
2020/12/08 00:40:06;;;;;;;9.90;9.00;;;;;20.50;99076.00;;;;2087518;28;20222;-46
2020/12/08 00:41:07;;;;;;;9.50;8.70;;;;;20.50;99075.00;;;;2087367;28;20298;-46
2020/12/08 00:42:07;;;;;;;9.20;8.40;;;;;20.50;99084.00;;;;2087532;28;20214;-47
2020/12/08 00:43:08;;;;;;;9.23;8.43;;;;;20.50;99079.00;;;;2087341;28;20215;-47
2020/12/08 00:44:08;;;;;;;8.67;7.87;;;;;20.50;99075.00;;;;2087236;28;20214;-48
2020/12/08 00:45:09;;;;;;;9.00;8.20;;;;;20.50;99081.00;;;;2086898;28;20221;-47
2020/12/08 00:46:10;;;;;;;8.35;7.65;;;;;20.50;99079.00;;;;2079672;28;20264;-46
2020/12/08 00:47:11;;;;;;;8.73;7.93;;;;;20.50;99078.00;;;;2086860;28;20242;-46
2020/12/08 00:48:11;;;;;;;7.77;7.17;;;;;20.40;99077.00;;;;2087114;28;20691;-47
2020/12/08 00:49:11;;;;;;;8.73;7.93;;;;;20.50;99079.00;;;;2087355;28;20557;-48
2020/12/08 00:50:12;;;;;;;8.33;7.63;;;;;20.50;99081.00;;;;2087397;28;20213;-47
2020/12/08 00:51:12;;;;;;;8.30;7.60;;;;;20.50;99081.00;;;;2087466;28;20231;-46
2020/12/08 00:52:12;;;;;;;8.20;7.50;;;;;20.50;99076.00;;;;2092261;28;20233;-46
2020/12/08 00:53:13;;;;;;;8.33;7.53;;;;;20.50;99080.00;;;;2090392;28;20214;-46
2020/12/08 00:54:13;;;;;;;8.07;7.37;;;;;20.50;99060.00;;;;2091609;28;20207;-46
2020/12/08 00:55:13;;;;;;;7.83;7.13;;;;;20.40;99074.00;;;;2089469;28;20203;-47
2020/12/08 00:56:14;;;;;;;9.30;8.40;;;;;20.50;99079.00;;;;2087442;28;20568;-45
2020/12/08 00:57:21;;;;;;;8.43;7.63;;;;;20.50;99083.00;;;;2086298;28;20276;-46
2020/12/08 00:58:21;;;;;;;7.90;7.20;;;;;20.40;99072.00;;;;2087051;28;20238;-46
2020/12/08 00:59:22;;;;;;;8.13;7.43;;;;;20.40;99091.00;;;;2087283;28;20215;-48
2020/12/08 01:00:22;;;;;;;8.53;7.73;;;;;20.40;99078.00;;;;2093556;28;22336;-47
2020/12/08 01:01:22;;;;;;;7.97;7.27;;;;;20.40;99086.00;;;;2095514;28;20224;-46
2020/12/08 01:02:23;;;;;;;7.70;7.00;;;;;20.40;99086.00;;;;2094870;28;20786;-47
2020/12/08 01:03:23;;;;;;;8.47;7.60;;;;;20.40;99078.00;;;;2094646;28;20223;-46
2020/12/08 01:04:23;;;;;;;7.87;7.17;;;;;20.40;99086.00;;;;2089016;28;20223;-46
2020/12/08 01:05:24;;;;;;;7.57;6.87;;;;;20.40;99089.00;;;;2086721;28;20232;-46
2020/12/08 01:06:24;;;;;;;8.00;7.30;;;;;20.40;99088.00;;;;2087143;28;20285;-47
2020/12/08 01:07:24;;;;;;;7.50;6.90;;;;;20.40;99089.00;;;;2086701;28;20206;-46
2020/12/08 01:08:25;;;;;;;7.43;6.83;;;;;20.40;99085.00;;;;2086934;28;20223;-47
2020/12/08 01:09:25;;;;;;;7.70;7.00;;;;;20.40;99090.00;;;;2086709;28;20226;-46
2020/12/08 01:10:25;;;;;;;7.80;7.10;;;;;20.40;99089.00;;;;2093587;28;20588;-48
2020/12/08 01:11:26;;;;;;;7.00;6.40;;;;;20.30;99083.00;;;;2095307;28;20661;-46
2020/12/08 01:12:26;;;;;;;7.83;7.13;;;;;20.40;99090.00;;;;2095472;28;20217;-46
2020/12/08 01:13:26;;;;;;;7.87;7.17;;;;;20.40;99096.00;;;;2095402;28;20206;-48
2020/12/08 01:14:27;;;;;;;7.60;7.00;;;;;20.30;99088.00;;;;2094409;28;20205;-46
2020/12/08 01:15:27;;;;;;;6.60;6.10;;;;;20.30;99087.00;;;;2095169;28;20249;-46
2020/12/08 01:16:27;;;;;;;6.97;6.37;;;;;20.30;99084.00;;;;2095549;28;20633;-46
2020/12/08 01:17:28;;;;;;;7.00;6.40;;;;;20.30;99084.00;;;;2095033;28;20212;-47
2020/12/08 01:18:28;;;;;;;7.23;6.60;;;;;20.30;99080.00;;;;2086288;28;20302;-46
2020/12/08 01:19:29;;;;;;;6.93;6.33;;;;;20.30;99083.00;;;;2086381;28;20219;-47
2020/12/08 01:20:29;;;;;;;7.53;6.90;;;;;20.30;99086.00;;;;2095353;28;20228;-47
2020/12/08 01:21:29;;;;;;;6.70;5.90;;;;;20.30;99086.00;;;;2095314;28;20220;-46
2020/12/08 01:22:30;;;;;;;6.67;6.17;;;;;20.30;99089.00;;;;2094818;28;20222;-46
2020/12/08 01:23:30;;;;;;;6.90;6.30;;;;;20.30;99083.00;;;;2091350;28;20292;-46
2020/12/08 01:24:30;;;;;;;7.43;6.40;;;;;20.30;99086.00;;;;2090954;28;20291;-46
2020/12/08 01:25:32;;;;;;;6.83;6.30;;;;;20.30;99084.00;;;;2087641;28;20211;-48
2020/12/08 01:26:33;;;;;;;7.53;6.90;;;;;20.30;99083.00;;;;2086893;28;20258;-47
2020/12/08 01:27:33;;;;;;;6.87;6.27;;;;;20.30;99090.00;;;;2086931;28;20288;-47
2020/12/08 01:28:34;;;;;;;6.53;5.93;;;;;20.30;99094.00;;;;2086951;28;20210;-46
2020/12/08 01:29:34;;;;;;;6.97;6.37;;;;;20.30;99098.00;;;;2086902;28;20294;-46
2020/12/08 01:30:34;;;;;;;6.80;6.20;;;;;20.30;99098.00;;;;2086877;28;20269;-48
2020/12/08 01:31:35;;;;;;;7.00;6.40;;;;;20.30;99101.00;;;;2087095;28;20239;-46
2020/12/08 01:32:35;;;;;;;6.57;6.00;;;;;20.30;99101.00;;;;2087174;28;20217;-47
2020/12/08 01:33:35;;;;;;;6.17;5.67;;;;;20.30;99104.00;;;;2086412;28;20297;-47
2020/12/08 01:34:37;;;;;;;6.47;5.87;;;;;20.30;99098.00;;;;2086150;28;20726;-47
2020/12/08 01:35:37;;;;;;;6.90;6.30;;;;;20.30;99099.00;;;;2084360;28;20280;-47
2020/12/08 01:36:38;;;;;;;6.37;5.87;;;;;20.20;99098.00;;;;2095390;28;20582;-48
2020/12/08 01:37:38;;;;;;;6.30;5.80;;;;;20.20;99095.00;;;;2094739;28;20230;-46
2020/12/08 01:38:39;;;;;;;6.77;6.17;;;;;20.20;99102.00;;;;2095122;28;20224;-46
2020/12/08 01:39:39;;;;;;;6.47;5.90;;;;;20.20;99099.00;;;;2095241;28;20221;-48
2020/12/08 01:40:39;;;;;;;6.40;5.90;;;;;20.30;99098.00;;;;2095279;28;20220;-48
2020/12/08 01:41:40;;;;;;;5.80;5.30;;;;;20.20;99090.00;;;;2095281;28;20249;-47
2020/12/08 01:42:40;;;;;;;6.90;6.20;;;;;20.20;99094.00;;;;2095316;28;20345;-47
2020/12/08 01:43:50;;;;;;;7.37;6.77;;;;;20.20;99086.00;;;;2095102;28;20646;-47
2020/12/08 01:44:51;;;;;;;6.65;6.05;;;;;20.20;99094.00;;;;2094275;28;20287;-46
2020/12/08 01:45:51;;;;;;;7.03;6.43;;;;;20.20;99094.00;;;;2095019;28;20630;-46
2020/12/08 01:46:51;;;;;;;6.50;5.90;;;;;20.20;99098.00;;;;2094584;28;20222;-48
2020/12/08 01:47:52;;;;;;;6.57;6.07;;;;;20.20;99098.00;;;;2093723;28;20210;-47
2020/12/08 01:48:53;;;;;;;7.10;6.50;;;;;20.20;99096.00;;;;2085650;28;20216;-46
2020/12/08 01:49:53;;;;;;;6.27;5.77;;;;;20.20;99091.00;;;;2093863;28;20218;-46
2020/12/08 01:50:53;;;;;;;7.27;6.67;;;;;20.20;99094.00;;;;2094068;28;21049;-46
2020/12/08 01:51:54;;;;;;;6.50;5.97;;;;;20.10;99096.00;;;;2085181;28;20684;-48
2020/12/08 01:52:54;;;;;;;6.13;5.63;;;;;20.20;99088.00;;;;2093635;28;20240;-46
2020/12/08 01:53:54;;;;;;;6.30;5.80;;;;;20.20;99089.00;;;;2091791;28;20214;-47
2020/12/08 01:54:55;;;;;;;6.73;6.10;;;;;20.20;99094.00;;;;2090142;28;20669;-46
2020/12/08 01:55:55;;;;;;;6.23;5.70;;;;;20.20;99087.00;;;;2088253;28;20219;-47
2020/12/08 01:56:55;;;;;;;6.97;6.37;;;;;20.20;99086.00;;;;2094011;28;20225;-46
2020/12/08 01:57:56;;;;;;;6.97;6.37;;;;;20.20;99084.00;;;;2085353;28;20220;-47
2020/12/08 01:58:56;;;;;;;5.97;5.47;;;;;20.20;99087.00;;;;2085296;28;20255;-47
2020/12/08 01:59:57;;;;;;;6.53;6.03;;;;;20.20;99087.00;;;;2095187;28;20237;-46
2020/12/08 02:00:57;;;;;;;6.50;5.90;;;;;20.20;99088.00;;;;2095134;28;20219;-46
2020/12/08 02:01:57;;;;;;;5.67;5.27;;;;;20.20;99087.00;;;;2094463;28;20214;-47
2020/12/08 02:02:58;;;;;;;6.83;6.23;;;;;20.20;99079.00;;;;2094602;28;20319;-47
2020/12/08 02:03:58;;;;;;;5.97;5.47;;;;;20.20;99082.00;;;;2094556;28;20229;-47
2020/12/08 02:05:00;;;;;;;6.30;5.80;;;;;20.10;99082.00;;;;2082419;28;20228;-48
2020/12/08 02:06:00;;;;;;;6.30;5.80;;;;;20.10;99082.00;;;;2086241;28;20313;-47
2020/12/08 02:07:00;;;;;;;6.47;5.97;;;;;20.10;99087.00;;;;2097361;28;20582;-46
2020/12/08 02:08:01;;;;;;;6.40;5.90;;;;;20.20;99088.00;;;;2090045;28;20616;-46
2020/12/08 02:09:01;;;;;;;5.80;5.30;;;;;20.20;99091.00;;;;2096407;28;20302;-46
2020/12/08 02:10:02;;;;;;;6.60;6.10;;;;;20.10;99093.00;;;;2096748;28;20222;-47
2020/12/08 02:11:02;;;;;;;6.70;6.20;;;;;20.10;99089.00;;;;2096773;28;20229;-47
2020/12/08 02:12:04;;;;;;;6.67;6.10;;;;;20.20;99087.00;;;;2096696;28;20213;-47
2020/12/08 02:13:10;;;;;;;6.10;5.53;;;;;20.20;99089.00;;;;2096385;28;20212;-47
2020/12/08 02:14:11;;;;;;;6.15;5.65;;;;;20.10;99085.00;;;;2096483;28;20592;-48
2020/12/08 02:15:11;;;;;;;5.67;5.27;;;;;20.10;99087.00;;;;2095971;28;20216;-47
2020/12/08 02:16:11;;;;;;;6.43;5.93;;;;;20.10;99084.00;;;;2096735;28;20559;-47
2020/12/08 02:17:12;;;;;;;5.90;5.50;;;;;20.10;99092.00;;;;2096369;28;20642;-47
2020/12/08 02:18:12;;;;;;;6.63;6.13;;;;;20.10;99094.00;;;;2096523;28;20621;-46
2020/12/08 02:19:13;;;;;;;6.63;6.03;;;;;20.10;99089.00;;;;2096594;28;20294;-47
2020/12/08 02:20:13;;;;;;;5.90;5.40;;;;;20.10;99096.00;;;;2096652;28;20235;-46
2020/12/08 02:21:13;;;;;;;6.00;5.50;;;;;20.10;99092.00;;;;2096738;28;20218;-45
2020/12/08 02:22:14;;;;;;;5.80;5.30;;;;;20.10;99096.00;;;;2096345;28;20220;-46
2020/12/08 02:23:14;;;;;;;6.60;6.00;;;;;20.10;99097.00;;;;2092910;28;20722;-47
2020/12/08 02:24:17;;;;;;;6.10;5.30;;;;;20.10;99087.00;;;;2092964;28;20717;-46
2020/12/08 02:25:17;;;;;;;6.90;6.30;;;;;20.10;99086.00;;;;2090371;28;20230;-47
2020/12/08 02:26:17;;;;;;;5.17;4.77;;;;;20.10;99087.00;;;;2088202;28;21107;-47
2020/12/08 02:27:20;;;;;;;6.20;5.70;;;;;20.10;99091.00;;;;2088104;28;20702;-47
2020/12/08 02:28:20;;;;;;;5.93;5.40;;;;;20.10;99090.00;;;;2088147;28;20215;-46
2020/12/08 02:29:20;;;;;;;5.90;5.30;;;;;20.10;99092.00;;;;2088433;28;20220;-46
2020/12/08 02:30:21;;;;;;;6.07;5.47;;;;;20.10;99095.00;;;;2088323;28;20575;-46
2020/12/08 02:31:21;;;;;;;6.90;6.30;;;;;20.00;99084.00;;;;2088401;28;20222;-48
2020/12/08 02:32:22;;;;;;;6.00;5.50;;;;;20.00;99083.00;;;;2088375;28;20248;-46
2020/12/08 02:33:28;;;;;;;5.43;4.93;;;;;20.10;99087.00;;;;2088239;28;20492;-46
2020/12/08 02:34:28;;;;;;;5.80;5.35;;;;;20.00;99091.00;;;;2087968;28;20201;-47
2020/12/08 02:35:28;;;;;;;5.70;5.30;;;;;20.10;99091.00;;;;2087621;28;20205;-48
2020/12/08 02:36:29;;;;;;;6.57;5.97;;;;;20.10;99092.00;;;;2088399;28;20211;-47
2020/12/08 02:37:29;;;;;;;5.83;5.33;;;;;20.00;99086.00;;;;2087868;28;20279;-46
2020/12/08 02:38:29;;;;;;;6.20;5.60;;;;;20.10;99088.00;;;;2088136;28;20221;-47
2020/12/08 02:39:30;;;;;;;6.10;5.60;;;;;20.10;99087.00;;;;2088392;28;20215;-47
2020/12/08 02:40:30;;;;;;;6.30;5.80;;;;;20.00;99088.00;;;;2088370;28;20235;-47
2020/12/08 02:41:30;;;;;;;5.90;5.43;;;;;20.00;99083.00;;;;2088250;28;20214;-46
2020/12/08 02:42:33;;;;;;;5.83;5.43;;;;;20.00;99092.00;;;;2095901;28;20205;-46
2020/12/08 02:43:34;;;;;;;6.18;5.57;;;;;20.00;99087.00;;;;2096272;28;20221;-46
2020/12/08 02:44:34;;;;;;;6.50;5.90;;;;;20.00;99090.00;;;;2095923;28;20634;-46
2020/12/08 02:45:34;;;;;;;6.17;5.67;;;;;20.00;99092.00;;;;2096478;28;20210;-46
2020/12/08 02:46:35;;;;;;;6.47;5.97;;;;;20.00;99092.00;;;;2096250;28;20263;-46
2020/12/08 02:47:35;;;;;;;5.50;5.10;;;;;20.00;99089.00;;;;2096339;28;20214;-46
2020/12/08 02:48:36;;;;;;;6.40;5.87;;;;;20.00;99087.00;;;;2096498;28;20214;-47
2020/12/08 02:49:36;;;;;;;6.30;5.80;;;;;20.00;99086.00;;;;2096506;28;20213;-47
2020/12/08 02:50:36;;;;;;;6.07;5.57;;;;;20.00;99092.00;;;;2096313;28;20222;-47
2020/12/08 02:51:37;;;;;;;5.80;5.30;;;;;20.00;99088.00;;;;2088262;28;20284;-45
2020/12/08 02:52:37;;;;;;;5.93;5.43;;;;;20.00;99093.00;;;;2096006;28;20771;-47
2020/12/08 02:53:38;;;;;;;6.73;6.17;;;;;20.00;99091.00;;;;2092706;28;20357;-47
2020/12/08 02:54:38;;;;;;;6.20;5.70;;;;;19.90;99092.00;;;;2092175;28;20226;-48
2020/12/08 02:55:38;;;;;;;5.00;4.60;;;;;19.90;99093.00;;;;2088088;28;20265;-47
2020/12/08 02:56:39;;;;;;;5.60;5.20;;;;;20.00;99100.00;;;;2087929;28;20226;-47
2020/12/08 02:57:39;;;;;;;6.37;5.87;;;;;20.00;99107.00;;;;2087967;28;20226;-46
2020/12/08 02:58:39;;;;;;;5.43;5.03;;;;;20.00;99098.00;;;;2087865;28;20227;-47
2020/12/08 02:59:40;;;;;;;6.03;5.47;;;;;20.00;99087.00;;;;2088146;28;20243;-46
2020/12/08 03:00:40;;;;;;;5.63;5.13;;;;;19.90;99094.00;;;;2088127;28;20594;-48
2020/12/08 03:01:40;;;;;;;5.83;5.33;;;;;19.90;99096.00;;;;2088179;28;20264;-46
2020/12/08 03:02:40;;;;;;;5.53;5.03;;;;;19.90;99087.00;;;;2088164;28;20221;-47
2020/12/08 03:03:41;;;;;;;5.80;5.30;;;;;19.90;99098.00;;;;2087853;28;20226;-47
2020/12/08 03:04:41;;;;;;;5.90;5.40;;;;;19.90;99093.00;;;;2087652;28;20250;-46
2020/12/08 03:05:41;;;;;;;5.17;4.77;;;;;19.90;99085.00;;;;2087797;28;20275;-46
2020/12/08 03:06:42;;;;;;;6.07;5.57;;;;;19.90;99089.00;;;;2088149;28;20218;-45
2020/12/08 03:07:42;;;;;;;6.40;5.90;;;;;19.90;99086.00;;;;2087550;28;20279;-47
2020/12/08 03:08:42;;;;;;;6.07;5.57;;;;;19.90;99091.00;;;;2088067;28;20222;-47
2020/12/08 03:09:43;;;;;;;5.63;5.13;;;;;19.90;99087.00;;;;2087972;28;20716;-48
2020/12/08 03:10:43;;;;;;;5.73;5.33;;;;;19.90;99089.00;;;;2087826;28;20221;-47
2020/12/08 03:11:44;;;;;;;6.47;5.97;;;;;19.90;99086.00;;;;2088152;28;20221;-47
2020/12/08 03:12:45;;;;;;;6.80;6.20;;;;;19.90;99081.00;;;;2088166;28;20261;-46
2020/12/08 03:13:45;;;;;;;5.90;5.50;;;;;19.90;99083.00;;;;2087763;28;20223;-48
2020/12/08 03:14:46;;;;;;;6.33;5.57;;;;;20.00;99087.00;;;;2087366;28;20680;-47
2020/12/08 03:15:46;;;;;;;5.60;5.10;;;;;20.00;99087.00;;;;2087975;28;20211;-46
2020/12/08 03:16:47;;;;;;;5.50;5.10;;;;;20.00;99076.00;;;;2086800;28;20217;-47
2020/12/08 03:17:47;;;;;;;5.93;5.43;;;;;19.90;99081.00;;;;2087868;28;20484;-46
2020/12/08 03:18:47;;;;;;;6.00;5.50;;;;;19.90;99078.00;;;;2087970;28;20221;-46
2020/12/08 03:19:49;;;;;;;5.63;5.23;;;;;20.00;99086.00;;;;2086676;28;20561;-51
2020/12/08 03:20:51;;;;;;;5.78;5.28;;;;;19.90;99087.00;;;;2087252;28;20222;-46
2020/12/08 03:21:51;;;;;;;6.15;5.65;;;;;19.90;99075.00;;;;2089481;28;20700;-46
2020/12/08 03:22:52;;;;;;;5.20;4.80;;;;;19.90;99076.00;;;;2093136;28;20313;-47
2020/12/08 03:23:52;;;;;;;5.40;5.00;;;;;19.90;99074.00;;;;2091951;28;20222;-46
2020/12/08 03:24:52;;;;;;;6.10;5.60;;;;;19.90;99076.00;;;;2091138;28;20224;-46
2020/12/08 03:25:53;;;;;;;5.53;5.13;;;;;19.90;99070.00;;;;2087383;28;20216;-46
2020/12/08 03:26:53;;;;;;;5.20;4.80;;;;;19.90;99075.00;;;;2087419;28;20636;-47
2020/12/08 03:27:54;;;;;;;5.40;5.00;;;;;19.90;99075.00;;;;2086952;28;20579;-46
2020/12/08 03:28:54;;;;;;;5.80;5.33;;;;;19.90;99072.00;;;;2087335;28;20584;-46
2020/12/08 03:29:54;;;;;;;5.73;5.23;;;;;19.90;99079.00;;;;2087377;28;20214;-46
2020/12/08 03:30:55;;;;;;;5.93;5.43;;;;;19.90;99070.00;;;;2087327;28;20718;-45
2020/12/08 03:31:55;;;;;;;5.83;5.33;;;;;19.90;99077.00;;;;2087048;28;20626;-47
2020/12/08 03:32:55;;;;;;;5.97;5.40;;;;;19.90;99084.00;;;;2087407;28;20575;-47
2020/12/08 03:33:56;;;;;;;5.40;5.00;;;;;19.90;99088.00;;;;2086315;28;20319;-46
2020/12/08 03:34:56;;;;;;;4.77;4.37;;;;;19.80;99083.00;;;;2086435;28;20223;-46
2020/12/08 03:35:56;;;;;;;5.00;4.60;;;;;19.80;99086.00;;;;2087183;28;20222;-47
2020/12/08 03:36:57;;;;;;;5.57;5.17;;;;;19.80;99079.00;;;;2087408;28;20230;-45
2020/12/08 03:37:57;;;;;;;5.60;5.10;;;;;19.80;99078.00;;;;2086750;28;20219;-46
2020/12/08 03:38:58;;;;;;;5.57;5.03;;;;;19.80;99089.00;;;;2086941;28;20228;-46
2020/12/08 03:39:58;;;;;;;5.77;5.27;;;;;19.80;99090.00;;;;2086229;28;20221;-47
2020/12/08 03:40:59;;;;;;;5.73;5.33;;;;;19.80;99084.00;;;;2087255;28;20846;-46
2020/12/08 03:41:59;;;;;;;5.50;5.03;;;;;19.80;99082.00;;;;2087314;28;20215;-46
2020/12/08 03:43:00;;;;;;;5.03;4.63;;;;;19.80;99083.00;;;;2082301;28;20218;-47
2020/12/08 03:44:00;;;;;;;5.43;5.03;;;;;19.80;99082.00;;;;2087542;28;20218;-47
2020/12/08 03:45:00;;;;;;;5.70;5.30;;;;;19.80;99090.00;;;;2087196;28;20214;-46
2020/12/08 03:46:01;;;;;;;5.10;4.70;;;;;19.80;99080.00;;;;2087655;28;20221;-47
2020/12/08 03:47:02;;;;;;;5.73;5.33;;;;;19.80;99078.00;;;;2090413;28;20218;-45
2020/12/08 03:48:03;;;;;;;5.20;4.75;;;;;19.80;99081.00;;;;2095241;28;20297;-48
2020/12/08 03:49:03;;;;;;;5.37;4.80;;;;;19.80;99081.00;;;;2096110;28;20719;-46
2020/12/08 03:50:03;;;;;;;5.77;5.27;;;;;19.80;99080.00;;;;2095954;28;20620;-46
2020/12/08 03:51:04;;;;;;;5.10;4.67;;;;;19.80;99083.00;;;;2095997;28;20719;-46
2020/12/08 03:52:04;;;;;;;5.70;5.20;;;;;19.80;99075.00;;;;2095857;28;20568;-47
2020/12/08 03:53:04;;;;;;;5.27;4.87;;;;;19.80;99075.00;;;;2091642;28;20264;-46
2020/12/08 03:54:05;;;;;;;5.70;5.30;;;;;19.80;99079.00;;;;2091956;28;20268;-46
2020/12/08 03:55:05;;;;;;;5.20;4.80;;;;;19.80;99080.00;;;;2091473;28;20221;-46
2020/12/08 03:56:16;;;;;;;5.70;5.20;;;;;19.80;99080.00;;;;2087549;28;20214;-48
2020/12/08 03:57:16;;;;;;;4.95;4.55;;;;;19.80;99077.00;;;;2087484;28;20236;-47
2020/12/08 03:58:16;;;;;;;5.20;4.80;;;;;19.80;99081.00;;;;2087354;28;20218;-46
2020/12/08 03:59:17;;;;;;;6.00;5.50;;;;;19.80;99078.00;;;;2087821;28;20220;-46
2020/12/08 04:00:17;;;;;;;5.33;4.93;;;;;19.80;99084.00;;;;2087660;28;20218;-45
2020/12/08 04:01:19;;;;;;;5.50;5.00;;;;;19.80;99078.00;;;;2087786;28;20286;-47
2020/12/08 04:02:19;;;;;;;5.50;5.00;;;;;19.80;99084.00;;;;2087630;28;20667;-46
2020/12/08 04:03:20;;;;;;;5.50;5.07;;;;;19.80;99088.00;;;;2087832;28;20218;-46
2020/12/08 04:04:20;;;;;;;5.20;4.80;;;;;19.80;99077.00;;;;2087501;28;20215;-47
2020/12/08 04:05:20;;;;;;;5.50;5.10;;;;;19.80;99084.00;;;;2087177;28;20210;-48
2020/12/08 04:06:23;;;;;;;6.00;5.47;;;;;19.80;99085.00;;;;2087606;28;20217;-47
2020/12/08 04:07:23;;;;;;;5.30;4.90;;;;;19.80;99077.00;;;;2086931;28;20210;-51
2020/12/08 04:08:23;;;;;;;6.27;5.77;;;;;19.80;99078.00;;;;2087328;28;20706;-50
2020/12/08 04:09:24;;;;;;;5.30;4.80;;;;;19.80;99083.00;;;;2087679;28;20685;-47
2020/12/08 04:10:24;;;;;;;5.50;5.10;;;;;19.80;99078.00;;;;2087528;28;20695;-46
2020/12/08 04:11:25;;;;;;;5.93;5.43;;;;;19.80;99077.00;;;;2087636;28;21199;-47
2020/12/08 04:12:25;;;;;;;5.63;5.13;;;;;19.80;99082.00;;;;2087579;28;20293;-48
2020/12/08 04:13:26;;;;;;;5.87;5.37;;;;;19.70;99081.00;;;;2093621;28;21038;-47
2020/12/08 04:14:26;;;;;;;6.37;5.87;;;;;19.80;99088.00;;;;2095067;28;20689;-46
2020/12/08 04:15:27;;;;;;;5.83;5.33;;;;;19.70;99084.00;;;;2088485;28;20208;-48
2020/12/08 04:16:31;;;;;;;5.23;4.83;;;;;19.80;99082.00;;;;2094218;28;20303;-47
2020/12/08 04:17:31;;;;;;;5.30;4.80;;;;;19.70;99087.00;;;;2095695;28;20202;-47
2020/12/08 04:18:31;;;;;;;4.83;4.53;;;;;19.70;99092.00;;;;2095454;28;20232;-46
2020/12/08 04:19:32;;;;;;;5.60;5.20;;;;;19.70;99095.00;;;;2095877;28;20201;-47
2020/12/08 04:20:32;;;;;;;5.47;4.97;;;;;19.70;99087.00;;;;2095765;28;20416;-47
2020/12/08 04:21:33;;;;;;;6.00;5.50;;;;;19.70;99093.00;;;;2095839;28;20226;-45
2020/12/08 04:22:34;;;;;;;5.28;4.82;;;;;19.70;99089.00;;;;2095348;28;20224;-47
2020/12/08 04:23:34;;;;;;;5.27;4.87;;;;;19.70;99088.00;;;;2091920;28;20206;-46
2020/12/08 04:24:34;;;;;;;5.23;4.73;;;;;19.70;99085.00;;;;2091214;28;20662;-46
2020/12/08 04:25:35;;;;;;;5.57;5.17;;;;;19.70;99088.00;;;;2087858;28;20203;-46
2020/12/08 04:26:35;;;;;;;6.30;5.70;;;;;19.70;99094.00;;;;2087278;28;20210;-47
2020/12/08 04:27:35;;;;;;;5.50;5.10;;;;;19.70;99089.00;;;;2087471;28;20296;-47
2020/12/08 04:28:36;;;;;;;6.17;5.57;;;;;19.70;99090.00;;;;2087401;28;20209;-46
2020/12/08 04:29:36;;;;;;;6.10;5.60;;;;;19.70;99089.00;;;;2087690;28;20212;-45
2020/12/08 04:30:37;;;;;;;5.30;4.90;;;;;19.70;99095.00;;;;2087512;28;20249;-46
2020/12/08 04:31:37;;;;;;;5.77;5.30;;;;;19.70;99091.00;;;;2087112;28;20226;-48
2020/12/08 04:32:38;;;;;;;6.13;5.53;;;;;19.70;99095.00;;;;2095695;28;20309;-47
2020/12/08 04:33:38;;;;;;;5.30;4.90;;;;;19.70;99099.00;;;;2095740;28;20224;-46
2020/12/08 04:34:38;;;;;;;5.30;4.80;;;;;19.80;99099.00;;;;2095053;28;20251;-46
2020/12/08 04:35:39;;;;;;;5.83;5.37;;;;;19.70;99103.00;;;;2095750;28;20220;-46
2020/12/08 04:36:39;;;;;;;6.73;6.23;;;;;19.70;99098.00;;;;2094872;28;20246;-46
2020/12/08 04:37:40;;;;;;;5.40;5.00;;;;;19.70;99098.00;;;;2094526;28;20303;-47
2020/12/08 04:38:40;;;;;;;5.77;5.27;;;;;19.70;99103.00;;;;2095396;28;20222;-47
2020/12/08 04:39:40;;;;;;;5.40;5.00;;;;;19.70;99095.00;;;;2095710;28;20698;-46
2020/12/08 04:40:46;;;;;;;6.00;5.50;;;;;19.70;99091.00;;;;2095252;28;20571;-46
2020/12/08 04:41:46;;;;;;;5.63;5.20;;;;;19.60;99093.00;;;;2085410;28;20231;-47
2020/12/08 04:42:48;;;;;;;5.93;5.43;;;;;19.70;99100.00;;;;2094893;28;20217;-46
2020/12/08 04:43:49;;;;;;;5.95;5.45;;;;;19.60;99095.00;;;;2096634;28;20582;-47
2020/12/08 04:44:50;;;;;;;5.50;5.00;;;;;19.60;99095.00;;;;2094957;28;20230;-46
2020/12/08 04:45:50;;;;;;;6.47;5.87;;;;;19.70;99095.00;;;;2086736;28;20214;-46
2020/12/08 04:46:55;;;;;;;5.37;4.90;;;;;19.60;99100.00;;;;2078306;28;20211;-47
2020/12/08 04:47:56;;;;;;;6.03;5.53;;;;;19.60;99103.00;;;;2094813;28;20213;-47
2020/12/08 04:48:56;;;;;;;5.70;5.20;;;;;19.60;99106.00;;;;2086614;28;20581;-47
2020/12/08 04:49:56;;;;;;;6.10;5.60;;;;;19.60;99101.00;;;;2086748;28;20503;-47
2020/12/08 04:50:57;;;;;;;5.77;5.27;;;;;19.60;99099.00;;;;2094778;28;20213;-46
2020/12/08 04:51:57;;;;;;;5.67;5.27;;;;;19.60;99091.00;;;;2095215;28;20223;-46
2020/12/08 04:52:57;;;;;;;5.70;5.20;;;;;19.60;99100.00;;;;2077743;28;20228;-46
2020/12/08 04:53:58;;;;;;;6.13;5.43;;;;;19.60;99100.00;;;;2085487;28;21147;-51
2020/12/08 04:55:00;;;;;;;6.17;5.57;;;;;19.60;99097.00;;;;2093992;28;20705;-48
2020/12/08 04:56:00;;;;;;;6.28;5.75;;;;;19.60;99094.00;;;;2078441;28;20285;-48
2020/12/08 04:57:00;;;;;;;6.33;4.90;;;;;19.60;99098.00;;;;2086551;28;20621;-46
2020/12/08 04:58:01;;;;;;;6.10;5.60;;;;;19.60;99099.00;;;;2091920;28;20257;-46
2020/12/08 04:59:01;;;;;;;5.70;5.20;;;;;19.60;99098.00;;;;2086081;28;20320;-46
2020/12/08 05:00:09;;;;;;;5.40;5.00;;;;;19.60;99093.00;;;;2085165;28;20213;-46
2020/12/08 05:01:23;;;;;;;5.90;5.40;;;;;19.60;99096.00;;;;2085849;28;20237;-46
2020/12/08 05:02:23;;;;;;;5.50;5.00;;;;;19.60;99097.00;;;;2087062;28;20298;-46
2020/12/08 05:03:24;;;;;;;5.93;5.43;;;;;19.60;99089.00;;;;2086468;28;20221;-46